Time,TemperatureF,DewpointF,PressureIn,WindDirection,WindDirectionDegrees,WindSpeedMPH,WindSpeedGustMPH,Humidity,HourlyPrecipIn,Conditions,Clouds,dailyrainin,SoftwareType,DateUTC
2013-03-14 00:08:00,26.4,20.5,30.18,NNW,337,2.2,-999.0,78,-99.99,,,0.00,Acu-Link.com,2013-03-14 04:08:00,
2013-03-14 00:23:00,26.1,20.5,30.17,NNW,337,3.7,-999.0,79,-99.99,,,0.00,Acu-Link.com,2013-03-14 04:23:00,
2013-03-14 00:38:00,26.1,20.8,30.17,NNW,337,3.2,-999.0,80,-99.99,,,0.00,Acu-Link.com,2013-03-14 04:38:00,
2013-03-14 00:53:00,25.9,20.6,30.17,NNW,337,3.7,-999.0,80,-99.99,,,0.00,Acu-Link.com,2013-03-14 04:53:00,
2013-03-14 01:09:00,25.7,20.4,30.17,NNW,337,2.2,-999.0,80,-99.99,,,0.00,Acu-Link.com,2013-03-14 05:09:00,
2013-03-14 01:24:00,25.5,20.2,30.17,NNW,337,3.2,-999.0,80,-99.99,,,0.00,Acu-Link.com,2013-03-14 05:24:00,
2013-03-14 01:39:00,25.3,20.0,30.18,North,0,1.7,-999.0,80,-99.99,,,0.00,Acu-Link.com,2013-03-14 05:39:00,
2013-03-14 01:54:00,25.3,20.0,30.17,North,0,4.2,-999.0,80,-99.99,,,0.00,Acu-Link.com,2013-03-14 05:54:00,
2013-03-14 02:09:00,25.2,20.2,30.17,NNW,337,4.7,-999.0,81,-99.99,,,0.00,Acu-Link.com,2013-03-14 06:09:00,
2013-03-14 02:25:00,25.2,20.2,30.17,North,0,1.1,-999.0,81,-99.99,,,0.00,Acu-Link.com,2013-03-14 06:25:00,
2013-03-14 02:40:00,24.8,20.1,30.17,North,0,1.7,-999.0,82,-99.99,,,0.00,Acu-Link.com,2013-03-14 06:40:00,
2013-03-14 02:55:00,24.6,20.2,30.17,North,0,1.7,-999.0,83,-99.99,,,0.00,Acu-Link.com,2013-03-14 06:55:00,
2013-03-14 03:10:00,24.3,19.9,30.16,North,0,2.7,-999.0,83,-99.99,,,0.00,Acu-Link.com,2013-03-14 07:10:00,
2013-03-14 03:25:00,24.3,19.9,30.17,North,0,1.1,-999.0,83,-99.99,,,0.00,Acu-Link.com,2013-03-14 07:25:00,
2013-03-14 03:41:00,23.7,19.6,30.16,North,0,1.1,-999.0,84,-99.99,,,0.00,Acu-Link.com,2013-03-14 07:41:00,
2013-03-14 04:26:00,23.5,19.4,30.16,North,0,2.7,-999.0,84,-99.99,,,0.00,Acu-Link.com,2013-03-14 08:26:00,
2013-03-14 04:41:00,23.2,19.4,30.16,North,0,1.1,-999.0,85,-99.99,,,0.00,Acu-Link.com,2013-03-14 08:41:00,
2013-03-14 04:56:00,23.2,19.4,30.16,North,0,1.1,-999.0,85,-99.99,,,0.00,Acu-Link.com,2013-03-14 08:56:00,
2013-03-14 05:27:00,22.8,19.3,30.16,North,0,1.7,-999.0,86,-99.99,,,0.00,Acu-Link.com,2013-03-14 09:27:00,
2013-03-14 05:42:00,22.5,19.0,30.16,North,0,0.0,-999.0,86,-99.99,,,0.00,Acu-Link.com,2013-03-14 09:42:00,
2013-03-14 05:57:00,21.9,18.9,30.17,North,0,0.0,-999.0,88,-99.99,,,0.00,Acu-Link.com,2013-03-14 09:57:00,
2013-03-14 06:12:00,21.4,18.4,30.17,North,0,0.0,-999.0,88,-99.99,,,0.00,Acu-Link.com,2013-03-14 10:12:00,
2013-03-14 06:28:00,20.5,17.8,30.18,North,0,0.0,-999.0,89,-99.99,,,0.00,Acu-Link.com,2013-03-14 10:28:00,
2013-03-14 06:43:00,20.3,18.1,30.18,North,0,0.0,-999.0,91,-99.99,,,0.00,Acu-Link.com,2013-03-14 10:43:00,
2013-03-14 06:58:00,20.7,18.5,30.18,North,0,0.0,-999.0,91,-99.99,,,0.00,Acu-Link.com,2013-03-14 10:58:00,
2013-03-14 07:13:00,19.9,17.7,30.18,North,0,0.0,-999.0,91,-99.99,,,0.00,Acu-Link.com,2013-03-14 11:13:00,
2013-03-14 07:28:00,19.8,17.9,30.18,North,0,0.0,-999.0,92,-99.99,,,0.00,Acu-Link.com,2013-03-14 11:28:00,
2013-03-14 07:44:00,19.9,18.2,30.17,North,0,0.0,-999.0,93,-99.99,,,0.00,Acu-Link.com,2013-03-14 11:44:00,
2013-03-14 07:59:00,21.2,19.2,30.18,North,0,1.7,-999.0,92,-99.99,,,0.00,Acu-Link.com,2013-03-14 11:59:00,
2013-03-14 08:14:00,22.3,19.6,30.17,North,0,1.7,-999.0,89,-99.99,,,0.00,Acu-Link.com,2013-03-14 12:14:00,
2013-03-14 08:29:00,24.6,20.2,30.17,North,0,2.7,-999.0,83,-99.99,,,0.00,Acu-Link.com,2013-03-14 12:29:00,
2013-03-14 08:44:00,27.0,21.1,30.16,North,0,2.2,-999.0,78,-99.99,,,0.00,Acu-Link.com,2013-03-14 12:44:00,
2013-03-14 09:00:00,30.4,21.5,30.17,North,0,2.7,-999.0,69,-99.99,,,0.00,Acu-Link.com,2013-03-14 13:00:00,
2013-03-14 09:15:00,32.7,22.3,30.17,WSW,247,2.7,-999.0,65,-99.99,,,0.00,Acu-Link.com,2013-03-14 13:15:00,
2013-03-14 09:30:00,35.2,23.5,30.16,South,180,0.0,-999.0,62,-99.99,,,0.00,Acu-Link.com,2013-03-14 13:30:00,
2013-03-14 09:45:00,36.0,23.9,30.17,South,180,0.0,-999.0,61,-99.99,,,0.00,Acu-Link.com,2013-03-14 13:45:00,
2013-03-14 10:01:00,34.9,22.0,30.17,West,270,1.7,-999.0,59,-99.99,,,0.00,Acu-Link.com,2013-03-14 14:01:00,
2013-03-14 10:46:00,39.9,22.3,30.17,NE,45,1.7,-999.0,49,-99.99,,,0.00,Acu-Link.com,2013-03-14 14:46:00,
2013-03-14 11:01:00,40.3,22.2,30.18,WSW,247,2.2,-999.0,48,-99.99,,,0.00,Acu-Link.com,2013-03-14 15:01:00,
2013-03-14 11:17:00,40.6,20.9,30.17,NNE,22,4.7,-999.0,45,-99.99,,,0.00,Acu-Link.com,2013-03-14 15:17:00,
2013-03-14 11:32:00,40.8,21.1,30.16,South,180,1.7,-999.0,45,-99.99,,,0.00,Acu-Link.com,2013-03-14 15:32:00,
2013-03-14 11:47:00,41.5,20.7,30.16,WNW,292,3.7,-999.0,43,-99.99,,,0.00,Acu-Link.com,2013-03-14 15:47:00,
2013-03-14 12:02:00,43.0,20.9,30.16,SW,225,4.7,-999.0,41,-99.99,,,0.00,Acu-Link.com,2013-03-14 16:02:00,
2013-03-14 12:17:00,44.4,21.0,30.15,WSW,247,6.3,-999.0,39,-99.99,,,0.00,Acu-Link.com,2013-03-14 16:17:00,
2013-03-14 12:33:00,44.8,20.8,30.15,NNW,337,2.7,-999.0,38,-99.99,,,0.00,Acu-Link.com,2013-03-14 16:33:00,
2013-03-14 12:48:00,41.2,21.0,30.14,SW,225,2.7,-999.0,44,-99.99,,,0.00,Acu-Link.com,2013-03-14 16:48:00,
2013-03-14 13:03:00,45.0,22.7,30.14,NW,315,3.2,-999.0,41,-99.99,,,0.00,Acu-Link.com,2013-03-14 17:03:00,
2013-03-14 13:18:00,44.6,22.4,30.13,SSE,157,5.8,-999.0,41,-99.99,,,0.00,Acu-Link.com,2013-03-14 17:18:00,
2013-03-14 13:34:00,46.8,22.5,30.12,South,180,3.7,-999.0,38,-99.99,,,0.00,Acu-Link.com,2013-03-14 17:34:00,
2013-03-14 13:49:00,46.6,20.4,30.12,WSW,247,1.7,-999.0,35,-99.99,,,0.00,Acu-Link.com,2013-03-14 17:49:00,
2013-03-14 14:04:00,47.3,22.4,30.11,SSW,202,2.7,-999.0,37,-99.99,,,0.00,Acu-Link.com,2013-03-14 18:04:00,
2013-03-14 14:19:00,46.0,19.9,30.10,SSE,157,2.2,-999.0,35,-99.99,,,0.00,Acu-Link.com,2013-03-14 18:19:00,
2013-03-14 14:34:00,49.3,23.5,30.09,WNW,292,4.2,-999.0,36,-99.99,,,0.00,Acu-Link.com,2013-03-14 18:34:00,
2013-03-14 14:50:00,49.1,22.6,30.09,West,270,1.7,-999.0,35,-99.99,,,0.00,Acu-Link.com,2013-03-14 18:50:00,
2013-03-14 15:05:00,49.3,23.5,30.08,WNW,292,5.8,-999.0,36,-99.99,,,0.00,Acu-Link.com,2013-03-14 19:05:00,
2013-03-14 15:20:00,48.2,23.2,30.07,West,270,5.8,-999.0,37,-99.99,,,0.00,Acu-Link.com,2013-03-14 19:20:00,
2013-03-14 15:35:00,50.2,24.3,30.07,South,180,3.7,-999.0,36,-99.99,,,0.00,Acu-Link.com,2013-03-14 19:35:00,
2013-03-14 15:51:00,52.2,24.7,30.06,SW,225,4.7,-999.0,34,-99.99,,,0.00,Acu-Link.com,2013-03-14 19:51:00,
2013-03-14 16:21:00,51.1,23.7,30.04,West,270,5.3,-999.0,34,-99.99,,,0.00,Acu-Link.com,2013-03-14 20:21:00,
2013-03-14 16:36:00,48.4,20.6,30.04,NW,315,5.3,-999.0,33,-99.99,,,0.00,Acu-Link.com,2013-03-14 20:36:00,
2013-03-14 16:52:00,52.2,23.2,30.03,NW,315,3.2,-999.0,32,-99.99,,,0.00,Acu-Link.com,2013-03-14 20:52:00,
2013-03-14 17:07:00,53.2,23.4,30.03,South,180,5.8,-999.0,31,-99.99,,,0.00,Acu-Link.com,2013-03-14 21:07:00,
2013-03-14 17:22:00,49.6,23.1,30.03,West,270,3.2,-999.0,35,-99.99,,,0.00,Acu-Link.com,2013-03-14 21:22:00,
2013-03-14 17:37:00,50.4,22.4,30.03,WSW,247,2.7,-999.0,33,-99.99,,,0.00,Acu-Link.com,2013-03-14 21:37:00,
2013-03-14 17:52:00,51.1,22.3,30.02,WNW,292,4.7,-999.0,32,-99.99,,,0.00,Acu-Link.com,2013-03-14 21:52:00,
2013-03-14 18:08:00,46.8,20.6,30.02,SSW,202,2.7,-999.0,35,-99.99,,,0.00,Acu-Link.com,2013-03-14 22:08:00,
2013-03-14 18:23:00,46.6,19.8,30.02,South,180,4.2,-999.0,34,-99.99,,,0.00,Acu-Link.com,2013-03-14 22:23:00,
2013-03-14 18:38:00,46.4,20.3,30.02,West,270,3.7,-999.0,35,-99.99,,,0.00,Acu-Link.com,2013-03-14 22:38:00,
2013-03-14 18:53:00,46.9,20.7,30.02,SW,225,2.7,-999.0,35,-99.99,,,0.00,Acu-Link.com,2013-03-14 22:53:00,
2013-03-14 19:08:00,44.1,20.1,30.01,ESE,112,3.2,-999.0,38,-99.99,,,0.00,Acu-Link.com,2013-03-14 23:08:00,
2013-03-14 19:39:00,42.4,21.5,30.02,North,0,2.2,-999.0,43,-99.99,,,0.00,Acu-Link.com,2013-03-14 23:39:00,
2013-03-14 19:54:00,41.9,21.6,30.02,West,270,2.7,-999.0,44,-99.99,,,0.00,Acu-Link.com,2013-03-14 23:54:00,
2013-03-14 20:09:00,41.4,22.2,30.01,SSW,202,1.7,-999.0,46,-99.99,,,0.00,Acu-Link.com,2013-03-15 00:09:00,
2013-03-14 20:24:00,41.0,22.3,30.02,South,180,2.7,-999.0,47,-99.99,,,0.00,Acu-Link.com,2013-03-15 00:24:00,
2013-03-14 20:40:00,41.0,22.8,30.01,West,270,3.2,-999.0,48,-99.99,,,0.00,Acu-Link.com,2013-03-15 00:40:00,
2013-03-14 20:55:00,41.0,22.8,30.01,South,180,2.7,-999.0,48,-99.99,,,0.00,Acu-Link.com,2013-03-15 00:55:00,
2013-03-14 21:10:00,40.8,23.1,30.01,SW,225,3.7,-999.0,49,-99.99,,,0.00,Acu-Link.com,2013-03-15 01:10:00,
2013-03-14 21:25:00,40.1,25.2,30.01,NNW,337,4.2,-999.0,55,-99.99,,,0.00,Acu-Link.com,2013-03-15 01:25:00,
2013-03-14 21:41:00,39.6,26.9,30.02,ESE,112,4.7,-999.0,60,-99.99,,,0.00,Acu-Link.com,2013-03-15 01:41:00,
2013-03-14 22:26:00,38.7,28.0,30.02,SSW,202,3.7,-999.0,65,-99.99,,,0.00,Acu-Link.com,2013-03-15 02:26:00,
2013-03-14 22:57:00,38.5,28.1,30.03,West,270,3.7,-999.0,66,-99.99,,,0.00,Acu-Link.com,2013-03-15 02:57:00,
2013-03-14 23:12:00,38.3,28.3,30.03,SW,225,2.2,-999.0,67,-99.99,,,0.00,Acu-Link.com,2013-03-15 03:12:00,
2013-03-14 23:27:00,37.8,27.8,30.02,SSE,157,2.7,-999.0,67,-99.99,,,0.00,Acu-Link.com,2013-03-15 03:27:00,
2013-03-14 23:42:00,37.6,28.0,30.02,North,0,1.7,-999.0,68,-99.99,,,0.00,Acu-Link.com,2013-03-15 03:42:00,
2013-03-14 23:57:00,37.0,27.8,30.01,NW,315,3.2,-999.0,69,-99.99,,,0.00,Acu-Link.com,2013-03-15 03:57:00,